createdAt,value
2018-01-15T00:01:51.264Z,19.30
2018-01-15T00:04:18.764Z,21.37
2018-01-15T00:06:46.253Z,22.10
2018-01-15T00:09:13.742Z,17.17
2018-01-15T00:11:41.226Z,22.13
2018-01-15T00:14:09.467Z,22.87
2018-01-15T00:16:36.941Z,20.87
2018-01-15T00:19:04.462Z,23.23
2018-01-15T00:21:31.949Z,21.53
2018-01-15T00:23:59.425Z,24.10
2018-01-15T00:26:27.677Z,21.50
2018-01-15T00:28:55.156Z,19.93
2018-01-15T00:31:23.426Z,23.10
2018-01-15T00:33:51.654Z,22.40
2018-01-15T00:36:19.130Z,24.07
2018-01-15T00:38:46.620Z,20.13
2018-01-15T00:41:14.866Z,21.77
2018-01-15T00:43:42.338Z,21.07
2018-01-15T00:46:10.594Z,23.30
2018-01-15T00:48:38.057Z,22.27
2018-01-15T00:51:05.554Z,23.07
2018-01-15T00:53:33.038Z,23.00
2018-01-15T00:56:00.553Z,21.97
2018-01-15T00:58:28.810Z,21.30
2018-01-15T01:00:57.045Z,18.57
2018-01-15T01:03:24.502Z,22.47
2018-01-15T01:05:52.000Z,21.77
2018-01-15T01:08:19.485Z,24.17
2018-01-15T01:10:47.737Z,20.40
2018-01-15T01:13:15.199Z,21.80
2018-01-15T01:15:42.697Z,22.87
2018-01-15T01:18:10.162Z,20.17
2018-01-15T01:20:37.641Z,19.27
2018-01-15T01:23:05.110Z,18.60
2018-01-15T01:25:34.034Z,22.10
2018-01-15T01:28:02.276Z,19.00
2018-01-15T01:30:29.748Z,21.03
2018-01-15T01:32:58.011Z,24.90
2018-01-15T01:35:25.475Z,22.90
2018-01-15T01:37:53.731Z,26.37
2018-01-15T01:40:21.207Z,20.70
2018-01-15T01:42:48.669Z,24.03
2018-01-15T01:45:16.953Z,22.43
2018-01-15T01:47:45.199Z,28.77
2018-01-15T01:50:12.677Z,17.63
2018-01-15T01:52:40.933Z,23.03
2018-01-15T01:55:08.405Z,25.97
2018-01-15T01:57:36.659Z,21.73
2018-01-15T02:00:04.156Z,25.17
2018-01-15T02:02:31.644Z,22.97
2018-01-15T02:04:59.109Z,23.20
2018-01-15T02:07:26.601Z,25.30
2018-01-15T02:09:54.873Z,25.83
2018-01-15T02:12:22.342Z,24.83
2018-01-15T02:14:50.588Z,24.20
2018-01-15T02:17:18.079Z,24.93
2018-01-15T02:19:45.539Z,22.77
2018-01-15T02:22:13.025Z,21.87
2018-01-15T02:24:40.496Z,18.27
2018-01-15T02:27:07.976Z,21.43
2018-01-15T02:29:35.455Z,25.70
2018-01-15T02:32:02.922Z,25.50
2018-01-15T02:34:30.424Z,23.23
2018-01-15T02:36:57.898Z,28.93
2018-01-15T02:39:25.382Z,24.97
2018-01-15T02:41:52.851Z,22.30
2018-01-15T02:44:20.326Z,24.67
2018-01-15T02:46:47.788Z,24.37
2018-01-15T02:49:15.278Z,20.90
2018-01-15T02:51:42.743Z,23.70
2018-01-15T02:54:10.218Z,23.97
2018-01-15T02:56:37.750Z,16.67
2018-01-15T02:59:05.227Z,23.63
2018-01-15T03:01:32.758Z,22.37
2018-01-15T03:04:00.241Z,23.57
2018-01-15T03:06:27.750Z,24.97
2018-01-15T03:08:55.209Z,19.67
2018-01-15T03:11:23.453Z,20.77
2018-01-15T03:13:50.931Z,24.10
2018-01-15T03:16:18.422Z,22.80
2018-01-15T03:18:45.878Z,19.60
2018-01-15T03:21:14.333Z,22.83
2018-01-15T03:23:41.794Z,21.13
2018-01-15T03:26:09.266Z,19.57
2018-01-15T03:28:36.730Z,20.77
2018-01-15T03:31:05.001Z,20.77
2018-01-15T03:33:32.460Z,21.53
2018-01-15T03:35:59.955Z,21.40
2018-01-15T03:38:27.426Z,21.13
2018-01-15T03:40:54.912Z,20.57
2018-01-15T03:43:22.370Z,20.87
2018-01-15T03:45:50.599Z,21.00
2018-01-15T03:48:18.079Z,19.00
2018-01-15T03:50:45.547Z,16.93
2018-01-15T03:53:13.025Z,19.50
2018-01-15T03:55:41.275Z,22.67
2018-01-15T03:58:08.754Z,18.07
2018-01-15T04:00:36.242Z,15.67
2018-01-15T04:03:03.706Z,19.57
2018-01-15T04:05:31.158Z,24.43
2018-01-15T04:07:58.648Z,19.83
2018-01-15T04:10:26.885Z,17.60
2018-01-15T04:12:54.381Z,22.27
2018-01-15T04:15:21.852Z,20.90
2018-01-15T04:17:50.083Z,19.60
2018-01-15T04:20:17.570Z,17.40
2018-01-15T04:22:45.039Z,21.30
2018-01-15T04:25:13.282Z,19.23
2018-01-15T04:27:40.743Z,19.03
2018-01-15T04:30:08.221Z,19.53
2018-01-15T04:32:35.687Z,23.23
2018-01-15T04:35:03.950Z,18.80
2018-01-15T04:37:32.193Z,22.67
2018-01-15T04:39:59.653Z,20.10
2018-01-15T04:42:27.138Z,26.40
2018-01-15T04:44:55.394Z,24.67
2018-01-15T04:47:22.861Z,22.77
2018-01-15T04:49:50.359Z,25.40
2018-01-15T04:52:17.936Z,22.57
2018-01-15T04:54:45.418Z,22.63
2018-01-15T04:57:13.136Z,20.27
2018-01-15T04:59:40.611Z,22.93
2018-01-15T05:02:08.085Z,19.83
2018-01-15T05:04:37.056Z,23.97
2018-01-15T05:07:04.542Z,33.37
2018-01-15T05:09:32.008Z,25.10
2018-01-15T05:12:00.993Z,30.87
2018-01-15T05:14:28.457Z,27.87
2018-01-15T05:16:55.933Z,21.07
2018-01-15T05:19:24.162Z,22.87
2018-01-15T05:21:51.732Z,23.43
2018-01-15T05:24:19.226Z,25.80
2018-01-15T05:26:46.706Z,22.27
2018-01-15T05:29:14.195Z,26.87
2018-01-15T05:31:41.657Z,18.37
2018-01-15T05:34:09.142Z,24.73
2018-01-15T05:36:37.362Z,22.93
2018-01-15T05:39:04.846Z,21.43
2018-01-15T05:41:33.815Z,19.60
2018-01-15T05:44:01.273Z,24.93
2018-01-15T05:46:28.753Z,22.27
2018-01-15T05:48:56.213Z,24.07
2018-01-15T05:51:24.461Z,27.87
2018-01-15T05:53:51.960Z,24.23
2018-01-15T05:56:19.415Z,21.20
2018-01-15T05:58:47.655Z,19.47
2018-01-15T06:01:15.239Z,24.37
2018-01-15T06:03:43.466Z,27.63
2018-01-15T06:06:10.953Z,22.43
2018-01-15T06:08:38.561Z,26.50
2018-01-15T06:11:06.066Z,22.27
2018-01-15T06:13:33.536Z,25.27
2018-01-15T06:16:01.785Z,21.57
2018-01-15T06:18:29.271Z,29.07
2018-01-15T06:20:57.508Z,24.50
2018-01-15T06:23:24.970Z,25.30
2018-01-15T06:25:52.462Z,22.20
2018-01-15T06:28:20.713Z,22.10
2018-01-15T06:30:48.205Z,24.33
2018-01-15T06:33:16.438Z,24.03
2018-01-15T06:35:44.700Z,25.57
2018-01-15T06:38:12.190Z,27.70
2018-01-15T06:40:40.418Z,23.33
2018-01-15T06:43:07.906Z,24.10
2018-01-15T06:45:35.405Z,19.30
2018-01-15T06:48:02.899Z,20.03
2018-01-15T06:50:30.365Z,27.83
2018-01-15T06:52:57.845Z,16.80
2018-01-15T06:55:25.320Z,22.57
2018-01-15T06:57:52.786Z,25.33
2018-01-15T07:00:20.275Z,24.20
2018-01-15T07:02:47.741Z,25.57
2018-01-15T07:05:15.223Z,22.93
2018-01-15T07:07:43.459Z,21.87
2018-01-15T07:10:10.996Z,24.53
2018-01-15T07:12:38.482Z,33.77
2018-01-15T07:15:05.962Z,23.77
2018-01-15T07:17:33.438Z,19.90
2018-01-15T07:20:01.693Z,19.60
2018-01-15T07:22:29.973Z,23.80
2018-01-15T07:24:57.455Z,21.10
2018-01-15T07:27:24.952Z,29.43
2018-01-15T07:29:52.422Z,21.33
2018-01-15T07:32:20.045Z,24.33
2018-01-15T07:34:47.526Z,30.30
2018-01-15T07:37:15.077Z,28.63
2018-01-15T07:39:42.577Z,29.87
2018-01-15T07:42:10.824Z,26.33
2018-01-15T07:44:38.298Z,23.83
2018-01-15T07:47:05.763Z,29.53
2018-01-15T07:49:34.007Z,19.00
2018-01-15T07:52:02.263Z,28.47
2018-01-15T07:54:29.725Z,26.50
2018-01-15T07:56:57.235Z,24.30
2018-01-15T07:59:25.468Z,24.53
2018-01-15T08:01:52.940Z,25.43
2018-01-15T08:04:20.494Z,17.77
2018-01-15T08:06:47.999Z,24.27
2018-01-15T08:09:16.222Z,22.50
2018-01-15T08:11:43.760Z,21.03
2018-01-15T08:14:11.235Z,21.27
2018-01-15T08:16:38.702Z,22.90
2018-01-15T08:19:06.963Z,23.83
2018-01-15T08:21:34.428Z,24.87
2018-01-15T08:24:01.924Z,18.87
2018-01-15T08:26:29.390Z,21.43
2018-01-15T08:28:56.858Z,22.10
2018-01-15T08:31:24.338Z,22.17
2018-01-15T08:33:51.822Z,23.50
2018-01-15T08:36:20.078Z,20.33
2018-01-15T08:38:48.341Z,15.80
2018-01-15T08:41:15.863Z,23.43
2018-01-15T08:43:43.352Z,24.00
2018-01-15T08:46:10.834Z,21.13
2018-01-15T08:48:39.075Z,25.83
2018-01-15T08:51:06.574Z,20.80
2018-01-15T08:53:34.827Z,17.23
2018-01-15T08:56:02.311Z,18.40
2018-01-15T08:58:29.773Z,22.20
2018-01-15T09:00:57.265Z,28.03
2018-01-15T09:03:24.726Z,28.03
2018-01-15T09:05:52.204Z,30.63
2018-01-15T09:08:19.676Z,20.47
2018-01-15T09:10:47.965Z,26.00
2018-01-15T09:13:16.210Z,19.03
2018-01-15T09:15:43.694Z,24.73
2018-01-15T09:18:11.159Z,22.37
2018-01-15T09:20:38.666Z,24.70
2018-01-15T09:23:06.151Z,25.60
2018-01-15T09:25:34.381Z,21.47
2018-01-15T09:28:01.856Z,25.67
2018-01-15T09:30:29.344Z,26.53
2018-01-15T09:32:57.575Z,23.53
2018-01-15T09:35:25.039Z,22.83
2018-01-15T09:37:53.371Z,27.30
2018-01-15T09:40:21.558Z,25.23
2018-01-15T09:42:49.132Z,22.87
2018-01-15T09:45:16.632Z,19.27
2018-01-15T09:47:44.868Z,22.93
2018-01-15T09:50:12.353Z,18.83
2018-01-15T09:52:40.626Z,20.73
2018-01-15T09:55:08.188Z,20.10
2018-01-15T09:57:36.493Z,19.43
2018-01-15T10:00:04.058Z,22.77
2018-01-15T10:02:31.674Z,22.17
2018-01-15T10:04:59.195Z,22.03
2018-01-15T10:07:26.678Z,15.87
2018-01-15T10:09:54.153Z,23.37
2018-01-15T10:12:22.394Z,19.47
2018-01-15T10:14:49.903Z,20.87
2018-01-15T10:17:17.422Z,21.20
2018-01-15T10:19:44.894Z,17.27
2018-01-15T10:22:13.148Z,18.37
2018-01-15T10:24:40.634Z,22.00
2018-01-15T10:27:08.895Z,19.13
2018-01-15T10:29:37.146Z,18.17
2018-01-15T10:32:04.621Z,15.77
2018-01-15T10:34:32.119Z,18.00
2018-01-15T10:36:59.599Z,19.87
2018-01-15T10:39:27.098Z,18.83
2018-01-15T10:41:55.332Z,20.83
2018-01-15T10:44:22.829Z,20.60
2018-01-15T10:46:51.063Z,21.23
2018-01-15T10:49:18.582Z,19.23
2018-01-15T10:51:46.068Z,19.73
2018-01-15T10:54:13.539Z,15.17
2018-01-15T10:56:42.642Z,20.13
2018-01-15T10:59:10.106Z,22.53
2018-01-15T11:01:37.594Z,17.90
2018-01-15T11:04:05.073Z,17.27
2018-01-15T11:06:32.595Z,20.80
2018-01-15T11:09:00.834Z,24.23
2018-01-15T11:11:28.705Z,21.77
2018-01-15T11:13:56.279Z,20.47
2018-01-15T11:16:23.914Z,19.70
2018-01-15T11:18:51.676Z,20.30
2018-01-15T11:21:19.519Z,19.43
2018-01-15T11:23:47.014Z,17.43
2018-01-15T11:26:14.490Z,20.13
2018-01-15T11:28:42.766Z,16.60
2018-01-15T11:31:11.012Z,19.33
2018-01-15T11:33:38.516Z,22.37
2018-01-15T11:36:05.968Z,18.13
2018-01-15T11:38:33.524Z,15.27
2018-01-15T11:41:00.998Z,16.67
2018-01-15T11:43:28.488Z,19.27
2018-01-15T11:45:55.949Z,19.07
2018-01-15T11:48:24.215Z,20.13
2018-01-15T11:50:51.672Z,19.43
2018-01-15T11:53:19.203Z,15.93
2018-01-15T11:55:46.686Z,17.17
2018-01-15T11:58:14.182Z,18.57
2018-01-15T12:00:42.433Z,19.33
2018-01-15T12:03:09.976Z,16.37
2018-01-15T12:05:37.503Z,17.37
2018-01-15T12:08:04.963Z,23.23
2018-01-15T12:10:32.467Z,26.33
2018-01-15T12:12:59.945Z,21.97
2018-01-15T12:15:28.204Z,21.67
2018-01-15T12:17:56.420Z,19.70
2018-01-15T12:20:23.891Z,26.03
2018-01-15T12:22:51.367Z,22.40
2018-01-15T12:25:18.848Z,25.20
2018-01-15T12:27:47.095Z,27.03
2018-01-15T12:30:14.578Z,21.60
2018-01-15T12:32:42.830Z,25.83
2018-01-15T12:35:10.294Z,24.07
2018-01-15T12:37:37.917Z,21.37
2018-01-15T12:40:05.402Z,18.47
2018-01-15T12:42:32.893Z,30.50
2018-01-15T12:45:00.380Z,21.03
2018-01-15T12:47:27.902Z,22.20
2018-01-15T12:49:56.141Z,20.47
2018-01-15T12:52:23.693Z,17.37
2018-01-15T12:54:51.159Z,19.63
2018-01-15T12:57:18.640Z,19.47
2018-01-15T12:59:46.913Z,19.13
2018-01-15T13:02:14.392Z,18.50
2018-01-15T13:04:41.873Z,17.70
2018-01-15T13:10:12.078Z,15.90
2018-01-15T13:12:39.555Z,17.10
2018-01-15T13:15:07.038Z,16.63
2018-01-15T13:17:34.494Z,15.87
2018-01-15T13:20:01.966Z,12.90
2018-01-15T13:22:29.454Z,14.70
2018-01-15T13:24:56.945Z,13.80
2018-01-15T13:27:24.426Z,13.60
2018-01-15T13:29:51.906Z,13.83
2018-01-15T13:32:20.138Z,16.70
2018-01-15T13:34:47.627Z,12.30
2018-01-15T13:37:15.901Z,13.97
2018-01-15T13:39:43.392Z,16.63
2018-01-15T13:42:10.865Z,13.93
2018-01-15T13:44:38.482Z,14.87
2018-01-15T13:47:06.032Z,16.27
2018-01-15T13:49:34.325Z,14.50
2018-01-15T13:52:02.602Z,19.73
2018-01-15T13:54:30.161Z,15.77
2018-01-15T13:56:58.403Z,18.43
2018-01-15T13:59:25.964Z,14.23
2018-01-15T14:01:53.626Z,17.97
2018-01-15T14:04:21.128Z,12.83
2018-01-15T14:06:48.616Z,11.97
2018-01-15T14:09:16.078Z,11.73
2018-01-15T14:11:43.546Z,10.73
2018-01-15T14:14:11.037Z,12.73
2018-01-15T14:16:38.509Z,11.57
2018-01-15T14:19:05.969Z,9.67
2018-01-15T14:21:33.442Z,11.37
2018-01-15T14:24:00.959Z,13.57
2018-01-15T14:26:29.184Z,12.03
2018-01-15T14:28:56.740Z,8.73
2018-01-15T14:31:24.346Z,10.30
2018-01-15T14:33:52.754Z,10.07
2018-01-15T14:36:20.227Z,9.80
2018-01-15T14:38:47.731Z,14.20
2018-01-15T14:41:15.230Z,11.97
2018-01-15T14:43:42.726Z,10.37
2018-01-15T14:46:10.216Z,10.77
2018-01-15T14:48:37.706Z,14.07
2018-01-15T14:51:05.208Z,14.07
2018-01-15T14:53:33.612Z,12.13
2018-01-15T14:56:01.126Z,13.67
2018-01-15T14:58:28.608Z,13.13
2018-01-15T15:00:56.905Z,12.63
2018-01-15T15:03:24.403Z,16.83
2018-01-15T15:05:52.655Z,13.83
2018-01-15T15:08:20.156Z,14.43
2018-01-15T15:10:48.410Z,10.43
2018-01-15T15:13:15.912Z,11.73
2018-01-15T15:15:43.425Z,15.53
2018-01-15T15:18:10.846Z,14.60
2018-01-15T15:20:38.346Z,13.33
2018-01-15T15:23:05.836Z,11.50
2018-01-15T15:25:33.313Z,10.53
2018-01-15T15:28:00.848Z,10.97
2018-01-15T15:30:28.315Z,11.60
2018-01-15T15:32:55.803Z,13.23
2018-01-15T15:35:23.260Z,12.80
2018-01-15T15:37:50.761Z,10.23
2018-01-15T15:40:18.226Z,9.40
2018-01-15T15:42:45.713Z,9.13
2018-01-15T15:45:13.173Z,6.23
2018-01-15T15:47:40.694Z,9.57
2018-01-15T15:50:08.331Z,5.73
2018-01-15T15:52:35.806Z,10.03
2018-01-15T15:55:04.094Z,10.93
2018-01-15T15:57:31.628Z,8.47
2018-01-15T15:59:59.862Z,11.73
2018-01-15T16:02:27.341Z,9.73
2018-01-15T16:04:54.839Z,11.03
2018-01-15T16:07:22.319Z,11.17
2018-01-15T16:09:49.827Z,9.03
2018-01-15T16:12:17.303Z,9.47
2018-01-15T16:14:44.822Z,5.23
2018-01-15T16:17:12.295Z,7.93
2018-01-15T16:19:40.677Z,6.60
2018-01-15T16:22:20.932Z,5.60
2018-01-15T16:24:48.424Z,7.00
2018-01-15T16:27:15.890Z,9.33
2018-01-15T16:29:43.545Z,9.40
2018-01-15T16:32:11.012Z,8.10
2018-01-15T16:34:38.575Z,3.93
2018-01-15T16:37:06.172Z,6.57
2018-01-15T16:39:33.657Z,7.23
2018-01-15T16:42:01.110Z,6.07
2018-01-15T16:44:28.610Z,7.07
2018-01-15T16:46:56.305Z,5.30
2018-01-15T16:49:24.541Z,6.30
2018-01-15T16:51:52.026Z,4.83
2018-01-15T16:54:20.278Z,7.17
2018-01-15T16:56:47.763Z,4.93
2018-01-15T16:59:16.013Z,6.20
2018-01-15T17:01:43.479Z,5.67
2018-01-15T17:04:11.713Z,4.73
2018-01-15T17:06:39.191Z,3.37
2018-01-15T17:09:06.728Z,3.50
2018-01-15T17:11:34.276Z,2.97
2018-01-15T17:14:01.768Z,3.00
2018-01-15T17:16:29.246Z,4.80
2018-01-15T17:18:57.479Z,3.43
2018-01-15T17:21:24.983Z,3.67
2018-01-15T17:23:53.208Z,2.93
2018-01-15T17:26:20.674Z,5.67
2018-01-15T17:28:48.204Z,3.57
2018-01-15T17:31:15.692Z,4.87
2018-01-15T17:33:43.182Z,3.20
2018-01-15T17:36:11.410Z,2.43
2018-01-15T17:38:38.934Z,5.33
2018-01-15T17:41:06.420Z,3.50
2018-01-15T17:43:33.889Z,2.90
2018-01-15T17:46:01.628Z,2.90
2018-01-15T17:48:29.120Z,2.60
2018-01-15T17:50:56.617Z,1.97
2018-01-15T17:53:24.108Z,3.23
2018-01-15T17:55:51.614Z,3.27
2018-01-15T17:58:19.081Z,4.13
2018-01-15T18:00:46.549Z,2.93
2018-01-15T18:03:14.051Z,4.20
2018-01-15T18:05:41.517Z,3.67
2018-01-15T18:08:09.014Z,3.03
2018-01-15T18:10:36.531Z,2.83
2018-01-15T18:13:04.127Z,1.97
2018-01-15T18:15:31.626Z,3.00
2018-01-15T18:17:59.096Z,3.80
2018-01-15T18:20:26.695Z,1.77
2018-01-15T18:22:54.156Z,4.23
2018-01-15T18:25:21.647Z,2.40
2018-01-15T18:27:49.113Z,2.47
2018-01-15T18:30:16.607Z,1.17
2018-01-15T18:32:44.126Z,2.73
2018-01-15T18:35:11.618Z,1.50
2018-01-15T18:37:39.086Z,4.67
2018-01-15T18:40:06.728Z,2.17
2018-01-15T18:42:34.982Z,1.13
2018-01-15T18:45:02.457Z,1.93
2018-01-15T18:47:29.935Z,1.07
2018-01-15T18:49:57.388Z,2.13
2018-01-15T18:52:25.121Z,0.60
2018-01-15T18:54:53.499Z,1.40
2018-01-15T18:57:21.781Z,2.03
2018-01-15T18:59:50.019Z,1.00
2018-01-15T19:02:17.554Z,0.97
2018-01-15T19:04:45.002Z,1.00
2018-01-15T19:07:12.499Z,0.90
2018-01-15T19:09:39.977Z,1.00
2018-01-15T19:12:08.226Z,0.60
2018-01-15T19:14:35.841Z,0.87
2018-01-15T19:17:03.335Z,1.13
2018-01-15T19:19:30.915Z,2.03
2018-01-15T19:21:59.156Z,2.27
2018-01-15T19:24:26.621Z,2.07
2018-01-15T19:26:55.059Z,0.47
2018-01-15T19:29:22.534Z,0.50
2018-01-15T19:31:50.018Z,0.40
2018-01-15T19:34:17.578Z,1.17
2018-01-15T19:36:57.985Z,0.70
2018-01-15T19:39:25.467Z,0.77
2018-01-15T19:41:55.079Z,0.50
2018-01-15T19:44:29.568Z,1.03
2018-01-15T19:47:02.793Z,0.60
2018-01-15T19:49:36.082Z,0.70
2018-01-15T19:52:09.307Z,1.40
2018-01-15T19:54:43.127Z,0.90
2018-01-15T19:57:17.313Z,0.70
2018-01-15T19:59:50.729Z,2.70
2018-01-15T20:02:24.814Z,0.80
2018-01-15T20:07:58.880Z,0.80
2018-01-15T20:10:32.002Z,0.50
2018-01-15T20:12:59.485Z,0.50
2018-01-15T20:15:26.976Z,1.50
2018-01-15T20:17:55.201Z,0.50
2018-01-15T20:20:22.676Z,0.70
2018-01-15T20:22:50.401Z,1.03
2018-01-15T20:25:17.883Z,1.37
2018-01-15T20:27:45.605Z,1.83
2018-01-15T20:30:13.123Z,0.90
2018-01-15T20:32:40.603Z,1.50
2018-01-15T20:35:08.293Z,1.23
2018-01-15T20:37:35.777Z,1.57
2018-01-15T20:40:03.268Z,1.60
2018-01-15T20:42:30.812Z,0.70
2018-01-15T20:44:59.039Z,3.27
2018-01-15T20:47:26.553Z,1.27
2018-01-15T20:49:54.780Z,1.97
2018-01-15T20:52:22.254Z,0.80
2018-01-15T20:54:49.735Z,1.03
2018-01-15T20:57:17.214Z,3.03
2018-01-15T20:59:44.720Z,1.17
2018-01-15T21:02:12.192Z,1.93
2018-01-15T21:04:40.720Z,1.10
2018-01-15T21:07:08.178Z,1.40
2018-01-15T21:09:35.681Z,0.97
2018-01-15T21:12:03.916Z,1.20
2018-01-15T21:14:31.400Z,1.23
2018-01-15T21:16:58.914Z,1.30
2018-01-15T21:19:26.384Z,1.70
2018-01-15T21:21:53.914Z,1.93
2018-01-15T21:24:21.382Z,1.57
2018-01-15T21:26:48.840Z,0.80
2018-01-15T21:29:16.316Z,2.97
2018-01-15T21:31:43.807Z,1.37
2018-01-15T21:34:12.034Z,1.10
2018-01-15T21:36:39.529Z,1.00
2018-01-15T21:39:07.001Z,0.60
2018-01-15T21:41:34.494Z,1.33
2018-01-15T21:44:01.975Z,0.87
2018-01-15T21:46:29.471Z,1.50
2018-01-15T21:48:57.719Z,2.00
2018-01-15T21:51:25.196Z,0.97
2018-01-15T21:53:53.841Z,0.53
2018-01-15T21:56:21.705Z,1.60
2018-01-15T21:58:49.496Z,0.63
2018-01-15T22:01:16.973Z,1.20
2018-01-15T22:03:44.504Z,1.10
2018-01-15T22:06:12.742Z,2.00
2018-01-15T22:08:40.282Z,2.20
2018-01-15T22:11:07.740Z,0.70
2018-01-15T22:13:35.249Z,1.53
2018-01-15T22:16:03.488Z,0.70
2018-01-15T22:18:30.966Z,0.70
2018-01-15T22:20:58.429Z,1.07
2018-01-15T22:23:26.862Z,1.10
2018-01-15T22:25:54.322Z,0.87
2018-01-15T22:28:21.826Z,1.17
2018-01-15T22:30:49.398Z,0.73
2018-01-15T22:33:16.922Z,0.57
2018-01-15T22:35:44.387Z,2.07
2018-01-15T22:38:11.867Z,0.93
2018-01-15T22:40:40.142Z,0.80
2018-01-15T22:43:08.367Z,0.80
2018-01-15T22:45:35.898Z,1.83
2018-01-15T22:48:03.494Z,1.17
2018-01-15T22:50:30.951Z,2.07
2018-01-15T22:52:58.413Z,1.80
2018-01-15T22:55:26.655Z,2.63
2018-01-15T22:57:54.134Z,2.77
2018-01-15T23:00:21.638Z,4.40
2018-01-15T23:02:49.214Z,6.23
2018-01-15T23:05:16.797Z,10.03
2018-01-15T23:07:44.272Z,9.47
2018-01-15T23:10:12.575Z,6.30
2018-01-15T23:12:40.873Z,7.37
2018-01-15T23:15:08.335Z,5.83
2018-01-15T23:17:35.818Z,6.33
2018-01-15T23:20:03.290Z,6.13
2018-01-15T23:22:30.786Z,5.20
2018-01-15T23:24:58.294Z,5.37
2018-01-15T23:27:25.802Z,6.30
2018-01-15T23:29:53.268Z,5.37
2018-01-15T23:32:20.742Z,5.80
2018-01-15T23:34:48.316Z,7.17
2018-01-15T23:37:15.800Z,4.60
2018-01-15T23:39:43.266Z,7.23
2018-01-15T23:42:11.507Z,4.47
2018-01-15T23:44:38.980Z,3.37
2018-01-15T23:47:06.454Z,3.83
2018-01-15T23:49:34.726Z,2.57
2018-01-15T23:52:02.961Z,3.73
2018-01-15T23:54:33.408Z,4.50
2018-01-15T23:57:00.893Z,2.70
2018-01-15T23:59:29.149Z,4.07
